createdAt,value
2022-10-06T00:02:14.734Z,14.29
2022-10-06T00:03:42.840Z,14.26
2022-10-06T00:05:13.000Z,14.26
2022-10-06T00:07:08.717Z,14.25
2022-10-06T00:08:44.716Z,14.23
2022-10-06T00:14:38.525Z,14.17
2022-10-06T00:16:49.844Z,14.15
2022-10-06T00:20:00.386Z,14.11
2022-10-06T00:23:03.091Z,14.11
2022-10-06T00:24:31.692Z,14.11
2022-10-06T00:26:22.319Z,14.10
2022-10-06T00:32:06.829Z,14.08
2022-10-06T00:35:10.758Z,14.08
2022-10-06T00:37:56.772Z,14.04
2022-10-06T00:39:26.952Z,14.05
2022-10-06T00:41:17.099Z,14.03
2022-10-06T00:43:10.489Z,14.00
2022-10-06T00:47:50.212Z,13.95
2022-10-06T00:50:11.314Z,13.95
2022-10-06T00:51:39.364Z,13.93
2022-10-06T00:53:18.288Z,13.93
2022-10-06T00:58:30.824Z,13.89
2022-10-06T00:59:59.083Z,13.86
2022-10-06T01:02:07.341Z,13.86
2022-10-06T01:04:58.037Z,13.81
2022-10-06T01:14:34.257Z,13.77
2022-10-06T01:17:43.182Z,13.74
2022-10-06T01:20:39.770Z,13.71
2022-10-06T01:27:06.897Z,13.67
2022-10-06T01:30:00.878Z,13.63
2022-10-06T01:37:27.659Z,13.59
2022-10-06T01:38:57.999Z,13.54
2022-10-06T01:41:22.122Z,13.57
2022-10-06T01:43:55.679Z,13.57
2022-10-06T01:52:33.598Z,13.56
2022-10-06T01:56:16.195Z,13.54
2022-10-06T01:57:48.191Z,13.54
2022-10-06T02:01:28.156Z,13.53
2022-10-06T02:07:47.327Z,13.52
2022-10-06T02:09:19.089Z,13.53
2022-10-06T02:11:58.596Z,13.50
2022-10-06T02:15:37.811Z,13.50
2022-10-06T02:17:59.902Z,13.49
2022-10-06T02:20:50.109Z,13.46
2022-10-06T02:23:18.831Z,13.47
2022-10-06T02:24:50.745Z,13.44
2022-10-06T02:26:19.123Z,13.44
2022-10-06T02:27:49.504Z,13.44
2022-10-06T02:36:45.863Z,13.39
2022-10-06T02:39:27.807Z,13.35
2022-10-06T02:41:27.839Z,13.35
2022-10-06T02:43:28.330Z,13.33
2022-10-06T02:44:58.693Z,13.31
2022-10-06T02:55:47.324Z,13.22
2022-10-06T02:58:17.078Z,13.19
2022-10-06T03:04:37.676Z,13.16
2022-10-06T03:06:06.058Z,13.13
2022-10-06T03:08:11.768Z,13.11
2022-10-06T03:09:44.384Z,13.09
2022-10-06T03:14:09.329Z,13.09
2022-10-06T03:21:31.820Z,13.00
2022-10-06T03:24:32.807Z,12.98
2022-10-06T03:29:56.411Z,12.90
2022-10-06T03:33:37.626Z,12.85
2022-10-06T03:42:38.473Z,12.79
2022-10-06T03:46:03.407Z,12.78
2022-10-06T03:48:09.436Z,12.76
2022-10-06T03:49:43.919Z,12.75
2022-10-06T04:03:14.263Z,12.54
2022-10-06T04:06:11.010Z,12.49
2022-10-06T04:11:17.099Z,12.47
2022-10-06T04:13:37.551Z,12.45
2022-10-06T04:16:19.034Z,12.40
2022-10-06T04:18:51.695Z,12.40
2022-10-06T04:25:13.988Z,12.35
2022-10-06T04:27:45.071Z,12.31
2022-10-06T04:29:13.095Z,12.31
2022-10-06T04:34:13.227Z,12.25
2022-10-06T04:38:33.880Z,12.20
2022-10-06T04:40:01.883Z,12.17
2022-10-06T04:43:58.870Z,12.10
2022-10-06T04:45:26.106Z,12.07
2022-10-06T04:47:16.762Z,12.04
2022-10-06T04:49:37.499Z,12.03
2022-10-06T04:51:34.687Z,12.02
2022-10-06T04:54:33.925Z,12.00
2022-10-06T04:57:22.146Z,11.97
2022-10-06T05:00:16.324Z,11.95
2022-10-06T05:05:52.070Z,11.90
2022-10-06T05:13:32.616Z,11.88
2022-10-06T05:18:40.394Z,11.81
2022-10-06T05:20:30.927Z,11.81
2022-10-06T05:22:38.589Z,11.80
2022-10-06T05:24:44.588Z,11.77
2022-10-06T05:27:25.514Z,11.77
2022-10-06T05:28:55.403Z,11.70
2022-10-06T05:31:18.307Z,11.70
2022-10-06T05:34:11.863Z,11.70
2022-10-06T05:41:56.230Z,11.66
2022-10-06T05:52:57.745Z,11.62
2022-10-06T05:55:17.743Z,11.60
2022-10-06T06:02:02.136Z,11.60
2022-10-06T06:13:43.303Z,11.55
2022-10-06T06:16:22.487Z,11.54
2022-10-06T06:22:11.691Z,11.52
2022-10-06T06:23:45.694Z,11.52
2022-10-06T06:29:42.037Z,11.54
2022-10-06T06:32:44.338Z,11.55
2022-10-06T06:33:44.351Z,11.57
2022-10-06T06:34:46.131Z,11.55
2022-10-06T06:36:16.431Z,11.57
2022-10-06T06:38:22.322Z,11.59
2022-10-06T06:41:13.100Z,11.59
2022-10-06T06:43:13.996Z,11.59
2022-10-06T06:45:48.941Z,11.62
2022-10-06T06:47:21.847Z,11.62
2022-10-06T06:48:47.433Z,11.65
2022-10-06T06:50:51.098Z,11.66
2022-10-06T06:53:46.752Z,11.69
2022-10-06T07:01:22.199Z,11.78
2022-10-06T07:03:55.502Z,11.78
2022-10-06T07:04:53.870Z,11.80
2022-10-06T07:07:59.088Z,11.87
2022-10-06T07:10:32.755Z,11.88
2022-10-06T07:12:35.330Z,11.94
2022-10-06T07:14:34.440Z,11.97
2022-10-06T07:16:03.788Z,11.99
2022-10-06T07:19:24.779Z,12.02
2022-10-06T07:20:54.111Z,12.04
2022-10-06T07:23:13.024Z,12.06
2022-10-06T07:25:59.850Z,12.13
2022-10-06T07:28:21.491Z,12.20
2022-10-06T07:29:52.530Z,12.21
2022-10-06T07:32:01.810Z,12.25
2022-10-06T07:36:32.597Z,12.36
2022-10-06T07:38:51.742Z,12.42
2022-10-06T07:43:56.208Z,12.50
2022-10-06T07:47:18.188Z,12.57
2022-10-06T07:53:19.967Z,12.68
2022-10-06T07:56:48.647Z,12.78
2022-10-06T07:58:50.645Z,12.82
2022-10-06T08:00:49.416Z,12.86
2022-10-06T08:03:53.564Z,12.93
2022-10-06T08:05:41.711Z,12.97
2022-10-06T08:07:12.543Z,13.00
2022-10-06T08:15:23.748Z,13.16
2022-10-06T08:16:53.818Z,13.20
2022-10-06T08:19:20.944Z,13.28
2022-10-06T08:21:53.030Z,13.35
2022-10-06T08:25:19.037Z,13.44
2022-10-06T08:28:24.368Z,13.52
2022-10-06T08:33:06.358Z,13.63
2022-10-06T08:34:37.021Z,13.67
2022-10-06T08:38:54.055Z,13.74
2022-10-06T08:40:25.063Z,13.75
2022-10-06T08:42:27.571Z,13.83
2022-10-06T08:44:49.774Z,13.89
2022-10-06T08:48:49.837Z,13.97
2022-10-06T08:50:51.110Z,13.99
2022-10-06T08:52:21.755Z,14.00
2022-10-06T08:54:58.046Z,14.05
2022-10-06T08:57:48.573Z,14.07
2022-10-06T09:00:09.663Z,14.12
2022-10-06T09:03:23.398Z,14.18
2022-10-06T09:05:20.348Z,14.25
2022-10-06T09:07:20.995Z,14.28
2022-10-06T09:10:37.032Z,14.33
2022-10-06T09:13:02.302Z,14.40
2022-10-06T09:15:22.885Z,14.44
2022-10-06T09:16:57.645Z,14.48
2022-10-06T09:19:32.898Z,14.54
2022-10-06T09:23:13.500Z,14.62
2022-10-06T09:29:16.571Z,14.79
2022-10-06T09:32:27.258Z,14.84
2022-10-06T09:36:07.676Z,14.89
2022-10-06T09:40:20.048Z,15.02
2022-10-06T09:42:32.994Z,15.07
2022-10-06T09:48:35.469Z,15.22
2022-10-06T09:50:07.414Z,15.24
2022-10-06T09:52:05.628Z,15.33
2022-10-06T09:53:54.793Z,15.37
2022-10-06T09:58:21.026Z,15.47
2022-10-06T10:07:15.332Z,15.68
2022-10-06T10:08:49.238Z,15.76
2022-10-06T10:16:52.345Z,16.23
2022-10-06T10:18:14.592Z,16.31
2022-10-06T10:20:24.386Z,16.46
2022-10-06T10:24:11.779Z,16.71
2022-10-06T10:27:20.923Z,16.76
2022-10-06T10:34:05.083Z,16.97
2022-10-06T10:35:24.259Z,17.05
2022-10-06T10:37:20.575Z,17.06
2022-10-06T10:39:32.278Z,17.11
2022-10-06T10:44:04.677Z,16.89
2022-10-06T10:48:08.103Z,16.68
2022-10-06T10:49:37.941Z,16.58
2022-10-06T10:56:41.347Z,16.90
2022-10-06T10:58:09.853Z,16.89
2022-10-06T11:01:42.493Z,16.66
2022-10-06T11:04:36.172Z,16.49
2022-10-06T11:08:24.467Z,16.56
2022-10-06T11:09:58.561Z,16.64
2022-10-06T11:11:28.267Z,16.60
2022-10-06T11:13:04.371Z,16.51
2022-10-06T11:16:00.068Z,16.41
2022-10-06T11:18:57.020Z,16.46
2022-10-06T11:20:54.983Z,16.64
2022-10-06T11:22:45.971Z,16.76
2022-10-06T11:25:45.805Z,16.72
2022-10-06T11:27:14.898Z,16.64
2022-10-06T11:29:12.856Z,16.66
2022-10-06T11:30:41.953Z,16.65
2022-10-06T11:33:13.717Z,16.64
2022-10-06T11:35:22.890Z,16.66
2022-10-06T11:37:40.361Z,16.71
2022-10-06T11:40:20.337Z,16.65
2022-10-06T11:45:13.841Z,16.71
2022-10-06T11:49:27.928Z,16.90
2022-10-06T11:54:35.624Z,17.94
2022-10-06T12:01:43.372Z,18.25
2022-10-06T12:03:13.071Z,18.19
2022-10-06T12:04:42.316Z,18.25
2022-10-06T12:06:40.805Z,18.23
2022-10-06T12:08:10.658Z,18.43
2022-10-06T12:09:39.528Z,18.59
2022-10-06T12:11:37.321Z,18.73
2022-10-06T12:15:06.101Z,19.02
2022-10-06T12:21:56.545Z,19.70
2022-10-06T12:23:55.621Z,19.86
2022-10-06T12:26:51.169Z,20.24
2022-10-06T12:28:21.126Z,20.40
2022-10-06T12:29:49.971Z,20.48
2022-10-06T12:31:19.962Z,20.55
2022-10-06T12:33:48.947Z,20.56
2022-10-06T12:36:46.036Z,20.56
2022-10-06T12:38:44.771Z,20.51
2022-10-06T12:40:43.602Z,20.50
2022-10-06T12:42:13.503Z,20.43
2022-10-06T12:44:12.351Z,20.47
2022-10-06T12:47:01.019Z,20.47
2022-10-06T12:50:56.545Z,20.07
2022-10-06T12:52:26.458Z,20.02
2022-10-06T12:54:25.290Z,19.89
2022-10-06T12:57:21.728Z,19.71
2022-10-06T12:59:20.646Z,19.69
2022-10-06T13:05:42.110Z,19.64
2022-10-06T13:12:34.690Z,19.67
2022-10-06T13:14:33.456Z,19.58
2022-10-06T13:17:31.446Z,19.30
2022-10-06T13:19:01.393Z,19.27
2022-10-06T13:20:30.274Z,19.21
2022-10-06T13:21:59.607Z,19.15
2022-10-06T13:24:56.558Z,18.95
2022-10-06T13:28:22.732Z,18.88
2022-10-06T13:30:49.585Z,18.81
2022-10-06T13:36:13.390Z,18.65
2022-10-06T13:37:42.514Z,18.60
2022-10-06T13:40:21.580Z,18.49
2022-10-06T13:43:39.463Z,18.44
2022-10-06T13:45:33.826Z,18.43
2022-10-06T13:48:00.823Z,18.41
2022-10-06T13:50:56.638Z,18.31
2022-10-06T13:55:21.602Z,18.20
2022-10-06T13:57:19.363Z,18.19
2022-10-06T14:00:17.157Z,18.16
2022-10-06T14:01:47.070Z,18.16
2022-10-06T14:03:44.851Z,18.10
2022-10-06T14:05:13.777Z,18.11
2022-10-06T14:06:42.691Z,18.08
2022-10-06T14:08:11.547Z,18.07
2022-10-06T14:12:06.259Z,18.03
2022-10-06T14:17:47.811Z,17.97
2022-10-06T14:19:46.548Z,17.90
2022-10-06T14:21:15.449Z,17.86
2022-10-06T14:22:44.305Z,17.83
2022-10-06T14:24:13.172Z,17.76
2022-10-06T14:28:37.839Z,17.70
2022-10-06T14:36:17.977Z,17.60
2022-10-06T14:38:45.649Z,17.57
2022-10-06T14:41:42.361Z,17.56
2022-10-06T14:43:11.218Z,17.56
2022-10-06T14:45:38.988Z,17.54
2022-10-06T14:51:02.378Z,17.46
2022-10-06T14:52:31.314Z,17.45
2022-10-06T14:54:59.533Z,17.45
2022-10-06T14:56:56.854Z,17.41
2022-10-06T15:02:52.140Z,17.33
2022-10-06T15:05:49.851Z,17.36
2022-10-06T15:07:47.583Z,17.33
2022-10-06T15:09:16.434Z,17.30
2022-10-06T15:10:45.356Z,17.29
2022-10-06T15:12:44.217Z,17.29
2022-10-06T15:15:40.927Z,17.27
2022-10-06T15:19:00.534Z,17.20
2022-10-06T15:22:27.148Z,17.16
2022-10-06T15:25:52.435Z,17.09
2022-10-06T15:27:50.318Z,17.05
2022-10-06T15:32:14.672Z,16.97
2022-10-06T15:35:39.336Z,16.96
2022-10-06T15:38:36.124Z,16.93
2022-10-06T15:40:06.384Z,16.89
2022-10-06T15:42:35.766Z,16.87
2022-10-06T15:50:23.370Z,16.78
2022-10-06T15:56:31.180Z,16.74
2022-10-06T15:58:02.312Z,16.69
2022-10-06T16:01:03.764Z,16.65
2022-10-06T16:03:01.615Z,16.61
2022-10-06T16:05:01.402Z,16.58
2022-10-06T16:06:30.560Z,16.57
2022-10-06T16:09:26.407Z,16.49
2022-10-06T16:11:54.548Z,16.46
2022-10-06T16:13:24.375Z,16.42
2022-10-06T16:16:20.746Z,16.41
2022-10-06T16:22:33.275Z,16.33
2022-10-06T16:26:29.468Z,16.28
2022-10-06T16:30:54.991Z,16.17
2022-10-06T16:32:23.998Z,16.15
2022-10-06T16:34:22.835Z,16.12
2022-10-06T16:37:10.749Z,16.04
2022-10-06T16:40:08.090Z,15.97
2022-10-06T16:45:19.327Z,15.82
2022-10-06T16:48:46.530Z,15.75
2022-10-06T16:53:00.005Z,15.64
2022-10-06T16:54:29.912Z,15.58
2022-10-06T16:57:27.672Z,15.46
2022-10-06T17:01:33.116Z,15.37
2022-10-06T17:10:19.081Z,15.17
2022-10-06T17:12:28.271Z,15.09
2022-10-06T17:20:18.851Z,14.86
2022-10-06T17:26:30.133Z,14.65
2022-10-06T17:29:47.744Z,14.58
2022-10-06T17:31:16.720Z,14.53
2022-10-06T17:34:12.688Z,14.44
2022-10-06T17:37:10.953Z,14.36
2022-10-06T17:41:39.952Z,14.26
2022-10-06T17:43:08.999Z,14.23
2022-10-06T17:45:08.142Z,14.22
2022-10-06T17:46:38.238Z,14.17
2022-10-06T17:49:35.444Z,14.11
2022-10-06T17:51:24.150Z,14.08
2022-10-06T17:52:52.994Z,14.05
2022-10-06T17:54:21.863Z,14.03
2022-10-06T17:56:21.654Z,13.97
2022-10-06T17:57:50.586Z,13.93
2022-10-06T17:59:19.935Z,13.90
2022-10-06T18:00:48.380Z,13.87
2022-10-06T18:03:07.041Z,13.81
2022-10-06T18:05:32.053Z,13.75
2022-10-06T18:09:53.007Z,13.70
2022-10-06T18:11:21.874Z,13.65
2022-10-06T18:14:09.500Z,13.60
2022-10-06T18:17:07.342Z,13.53
2022-10-06T18:19:35.031Z,13.50
2022-10-06T18:21:32.821Z,13.44
2022-10-06T18:24:00.060Z,13.39
2022-10-06T18:25:58.993Z,13.35
2022-10-06T18:27:27.945Z,13.30
2022-10-06T18:43:54.800Z,12.83
2022-10-06T18:45:23.718Z,12.79
2022-10-06T18:47:21.719Z,12.73
2022-10-06T18:48:51.626Z,12.68
2022-10-06T18:53:15.053Z,12.57
2022-10-06T18:58:08.286Z,12.46
2022-10-06T19:02:53.699Z,12.35
2022-10-06T19:04:22.634Z,12.31
2022-10-06T19:05:51.487Z,12.28
2022-10-06T19:08:47.133Z,12.22
2022-10-06T19:10:16.139Z,12.21
2022-10-06T19:16:36.198Z,12.06
2022-10-06T19:19:31.896Z,11.99
2022-10-06T19:30:16.512Z,11.81
2022-10-06T19:31:46.563Z,11.80
2022-10-06T19:34:45.184Z,11.77
2022-10-06T19:41:06.751Z,11.66
2022-10-06T19:46:03.248Z,11.55
2022-10-06T19:49:29.892Z,11.50
2022-10-06T19:50:58.727Z,11.47
2022-10-06T19:55:49.998Z,11.41
2022-10-06T19:59:44.941Z,11.33
2022-10-06T20:02:43.470Z,11.30
2022-10-06T20:05:39.864Z,11.27
2022-10-06T20:08:36.657Z,11.25
2022-10-06T20:11:03.522Z,11.23
2022-10-06T20:14:01.108Z,11.19
2022-10-06T20:15:59.119Z,11.17
2022-10-06T20:17:28.025Z,11.14
2022-10-06T20:20:26.739Z,11.08
2022-10-06T20:22:53.713Z,11.07
2022-10-06T20:24:53.477Z,11.04
2022-10-06T20:26:51.442Z,11.00
2022-10-06T20:29:19.139Z,10.99
2022-10-06T20:32:15.718Z,10.99
2022-10-06T20:34:13.512Z,10.94
2022-10-06T20:37:39.167Z,10.93
2022-10-06T20:40:35.864Z,10.89
2022-10-06T20:44:30.364Z,10.86
2022-10-06T20:50:53.855Z,10.79
2022-10-06T20:52:51.686Z,10.78
2022-10-06T20:54:20.560Z,10.78
2022-10-06T20:55:50.462Z,10.75
2022-10-06T20:57:19.339Z,10.75
2022-10-06T21:00:16.029Z,10.74
2022-10-06T21:09:03.831Z,10.68
2022-10-06T21:12:57.459Z,10.63
2022-10-06T21:17:11.514Z,10.60
2022-10-06T21:18:40.407Z,10.61
2022-10-06T21:22:05.788Z,10.59
2022-10-06T21:25:04.900Z,10.57
2022-10-06T21:28:01.699Z,10.56
2022-10-06T21:29:30.718Z,10.56
2022-10-06T21:31:29.652Z,10.51
2022-10-06T21:32:58.445Z,10.51
2022-10-06T21:34:56.499Z,10.49
2022-10-06T21:36:25.305Z,10.46
2022-10-06T21:39:52.974Z,10.42
2022-10-06T21:41:50.868Z,10.42
2022-10-06T21:43:19.763Z,10.42
2022-10-06T21:44:49.030Z,10.42
2022-10-06T21:46:48.112Z,10.42
2022-10-06T21:49:06.550Z,10.42
2022-10-06T21:50:35.393Z,10.42
2022-10-06T21:52:04.457Z,10.42
2022-10-06T21:53:34.375Z,10.44
2022-10-06T21:55:33.086Z,10.42
2022-10-06T22:02:52.013Z,10.42
2022-10-06T22:05:21.753Z,10.42
2022-10-06T22:08:48.607Z,10.41
2022-10-06T22:10:47.643Z,10.41
2022-10-06T22:15:41.212Z,10.37
2022-10-06T22:19:27.832Z,10.31
2022-10-06T22:22:23.473Z,10.30
2022-10-06T22:25:19.564Z,10.30
2022-10-06T22:28:45.238Z,10.28
2022-10-06T22:33:10.999Z,10.26
2022-10-06T22:37:04.556Z,10.19
2022-10-06T22:39:02.280Z,10.19
2022-10-06T22:44:25.675Z,10.12
2022-10-06T22:46:52.545Z,10.09
2022-10-06T22:56:39.204Z,9.97
2022-10-06T22:58:09.047Z,9.95
2022-10-06T22:59:37.920Z,9.95
2022-10-06T23:01:06.945Z,9.94
2022-10-06T23:02:36.764Z,9.92
2022-10-06T23:06:02.271Z,9.91
2022-10-06T23:09:57.230Z,9.86
2022-10-06T23:15:18.481Z,9.83
2022-10-06T23:16:47.535Z,9.80
2022-10-06T23:22:39.414Z,9.76
2022-10-06T23:24:38.368Z,9.72
2022-10-06T23:29:31.711Z,9.66
2022-10-06T23:31:58.623Z,9.64
2022-10-06T23:36:50.935Z,9.62
2022-10-06T23:40:07.270Z,9.62
2022-10-06T23:44:29.719Z,9.61
2022-10-06T23:46:28.666Z,9.59
2022-10-06T23:49:25.193Z,9.59
2022-10-06T23:52:52.286Z,9.55
2022-10-06T23:54:20.678Z,9.55
2022-10-06T23:55:50.039Z,9.55
2022-10-06T23:57:18.443Z,9.51
